Terminal Aerodrome Forecast
Issued by NWS Wichita, KS

Home | Current Version | Previous Version | Text Only | Print | Product List | Glossary On
Versions: 1 2 3 4 5 6 7 8 9 10 11 12 13 14 15 16 17 18 19 20 21
000
FTUS43 KICT 191726
TAFICT
TAF
KICT 191726Z 1918/2018 21011KT P6SM SCT250
     FM192000 22013G23KT P6SM SCT250
     FM192300 19008KT P6SM SKC
     FM201700 20017G26KT P6SM SKC=

USA.gov is the U.S. government's official web portal to all federal, state and local government web resources and services.